createdAt,value
2017-06-13T00:00:27.372Z,969.39
2017-06-13T00:01:27.372Z,969.4
2017-06-13T00:02:27.370Z,969.45
2017-06-13T00:03:27.369Z,969.46
2017-06-13T00:04:27.368Z,969.44
2017-06-13T00:05:27.366Z,969.42
2017-06-13T00:06:27.366Z,969.45
2017-06-13T00:07:27.363Z,969.49
2017-06-13T00:08:27.364Z,969.49
2017-06-13T00:09:27.359Z,969.54
2017-06-13T00:10:27.358Z,969.51
2017-06-13T00:11:27.359Z,969.53
2017-06-13T00:12:27.357Z,969.52
2017-06-13T00:13:27.354Z,969.53
2017-06-13T00:14:27.353Z,969.46
2017-06-13T00:15:27.352Z,969.43
2017-06-13T00:16:27.350Z,969.46
2017-06-13T00:17:27.349Z,969.48
2017-06-13T00:18:27.348Z,969.47
2017-06-13T00:19:27.346Z,969.46
2017-06-13T00:20:27.342Z,969.44
2017-06-13T00:21:27.343Z,969.47
2017-06-13T00:22:27.341Z,969.43
2017-06-13T00:23:27.340Z,969.42
2017-06-13T00:24:27.339Z,969.41
2017-06-13T00:25:27.336Z,969.46
2017-06-13T00:26:27.335Z,969.46
2017-06-13T00:27:27.334Z,969.49
2017-06-13T00:28:27.333Z,969.43
2017-06-13T00:29:27.331Z,969.44
2017-06-13T00:30:27.331Z,969.43
2017-06-13T00:31:27.328Z,969.39
2017-06-13T00:32:27.327Z,969.39
2017-06-13T00:33:27.326Z,969.37
2017-06-13T00:34:27.324Z,969.33
2017-06-13T00:35:27.323Z,969.33
2017-06-13T00:36:27.320Z,969.36
2017-06-13T00:37:27.319Z,969.43
2017-06-13T00:38:27.318Z,969.42
2017-06-13T00:39:27.315Z,969.44
2017-06-13T00:40:27.315Z,969.43
2017-06-13T00:41:27.313Z,969.39
2017-06-13T00:42:27.310Z,969.41
2017-06-13T00:43:27.311Z,969.43
2017-06-13T00:44:27.310Z,969.44
2017-06-13T00:45:27.309Z,969.49
2017-06-13T00:46:27.306Z,969.51
2017-06-13T00:47:27.305Z,969.47
2017-06-13T00:48:27.304Z,969.46
2017-06-13T00:49:27.300Z,969.45
2017-06-13T00:50:27.299Z,969.44
2017-06-13T00:51:27.299Z,969.46
2017-06-13T00:52:27.297Z,969.44
2017-06-13T00:53:27.296Z,969.41
2017-06-13T00:54:27.293Z,969.38
2017-06-13T00:55:27.294Z,969.38
2017-06-13T00:56:27.290Z,969.34
2017-06-13T00:57:27.290Z,969.34
2017-06-13T00:58:27.289Z,969.3
2017-06-13T00:59:27.287Z,969.27
2017-06-13T01:00:27.286Z,969.31
2017-06-13T01:01:27.285Z,969.3
2017-06-13T01:02:27.282Z,969.33
2017-06-13T01:03:27.281Z,969.31
2017-06-13T01:04:27.279Z,969.32
2017-06-13T01:05:27.276Z,969.3
2017-06-13T01:06:27.276Z,969.33
2017-06-13T01:07:27.275Z,969.37
2017-06-13T01:08:27.272Z,969.34
2017-06-13T01:09:27.273Z,969.31
2017-06-13T01:10:27.271Z,969.3
2017-06-13T01:11:27.270Z,969.31
2017-06-13T01:12:27.265Z,969.31
2017-06-13T01:13:27.267Z,969.32
2017-06-13T01:14:27.263Z,969.28
2017-06-13T01:15:27.263Z,969.29
2017-06-13T01:16:27.261Z,969.26
2017-06-13T01:17:27.258Z,969.25
2017-06-13T01:18:27.257Z,969.27
2017-06-13T01:19:27.256Z,969.27
2017-06-13T01:20:27.255Z,969.28
2017-06-13T01:21:27.254Z,969.3
2017-06-13T01:22:27.252Z,969.34
2017-06-13T01:23:27.250Z,969.34
2017-06-13T01:24:27.248Z,969.28
2017-06-13T01:25:27.246Z,969.29
2017-06-13T01:26:27.244Z,969.28
2017-06-13T01:27:27.244Z,969.27
2017-06-13T01:28:27.243Z,969.27
2017-06-13T01:29:27.240Z,969.28
2017-06-13T01:30:27.237Z,969.25
2017-06-13T01:31:27.239Z,969.25
2017-06-13T01:32:27.237Z,969.25
2017-06-13T01:33:27.235Z,969.26
2017-06-13T01:34:27.234Z,969.31
2017-06-13T01:35:27.233Z,969.27
2017-06-13T01:36:27.232Z,969.24
2017-06-13T01:37:27.227Z,969.24
2017-06-13T01:38:27.228Z,969.22
2017-06-13T01:39:27.225Z,969.25
2017-06-13T01:40:27.226Z,969.26
2017-06-13T01:41:27.226Z,969.3
2017-06-13T01:42:27.221Z,969.33
2017-06-13T01:43:27.219Z,969.32
2017-06-13T01:44:27.219Z,969.26
2017-06-13T01:45:27.217Z,969.22
2017-06-13T01:46:27.215Z,969.23
2017-06-13T01:47:27.214Z,969.21
2017-06-13T01:48:27.212Z,969.21
2017-06-13T01:49:27.211Z,969.2
2017-06-13T01:50:27.209Z,969.17
2017-06-13T01:51:27.207Z,969.17
2017-06-13T01:52:27.206Z,969.17
2017-06-13T01:53:27.203Z,969.2
2017-06-13T01:54:27.201Z,969.2
2017-06-13T01:55:27.202Z,969.27
2017-06-13T01:56:27.200Z,969.29
2017-06-13T01:57:27.198Z,969.27
2017-06-13T01:58:27.198Z,969.23
2017-06-13T01:59:27.193Z,969.21
2017-06-13T02:00:27.192Z,969.19
2017-06-13T02:01:27.194Z,969.15
2017-06-13T02:02:27.191Z,969.17
2017-06-13T02:03:27.188Z,969.2
2017-06-13T02:04:27.186Z,969.24
2017-06-13T02:05:27.185Z,969.22
2017-06-13T02:06:27.182Z,969.23
2017-06-13T02:07:27.182Z,969.22
2017-06-13T02:08:27.180Z,969.19
2017-06-13T02:09:27.180Z,969.22
2017-06-13T02:10:27.175Z,969.22
2017-06-13T02:11:27.174Z,969.23
2017-06-13T02:12:27.173Z,969.24
2017-06-13T02:13:27.173Z,969.31
2017-06-13T02:14:27.172Z,969.3
2017-06-13T02:15:27.170Z,969.29
2017-06-13T02:16:27.168Z,969.26
2017-06-13T02:17:27.165Z,969.3
2017-06-13T02:18:27.164Z,969.24
2017-06-13T02:19:27.164Z,969.23
2017-06-13T02:20:27.161Z,969.25
2017-06-13T02:21:27.161Z,969.24
2017-06-13T02:22:27.158Z,969.23
2017-06-13T02:23:27.156Z,969.28
2017-06-13T02:24:27.156Z,969.33
2017-06-13T02:25:27.155Z,969.31
2017-06-13T02:26:27.153Z,969.34
2017-06-13T02:27:27.151Z,969.36
2017-06-13T02:28:27.148Z,969.34
2017-06-13T02:29:27.144Z,969.31
2017-06-13T02:30:27.147Z,969.27
2017-06-13T02:31:27.142Z,969.24
2017-06-13T02:32:27.142Z,969.27
2017-06-13T02:33:27.141Z,969.23
2017-06-13T02:34:27.139Z,969.27
2017-06-13T02:35:27.151Z,969.28
2017-06-13T02:36:27.135Z,969.33
2017-06-13T02:37:27.133Z,969.32
2017-06-13T02:38:27.132Z,969.35
2017-06-13T02:39:27.130Z,969.33
2017-06-13T02:40:27.130Z,969.32
2017-06-13T02:41:27.128Z,969.33
2017-06-13T02:42:27.126Z,969.38
2017-06-13T02:43:27.123Z,969.4
2017-06-13T02:44:27.121Z,969.39
2017-06-13T02:45:27.120Z,969.38
2017-06-13T02:46:27.121Z,969.33
2017-06-13T02:47:27.116Z,969.36
2017-06-13T02:48:27.115Z,969.36
2017-06-13T02:49:27.114Z,969.32
2017-06-13T02:50:27.112Z,969.37
2017-06-13T02:51:27.110Z,969.34
2017-06-13T02:52:27.109Z,969.36
2017-06-13T02:53:27.108Z,969.32
2017-06-13T02:54:27.103Z,969.36
2017-06-13T02:55:27.105Z,969.31
2017-06-13T02:56:27.102Z,969.29
2017-06-13T02:57:27.102Z,969.27
2017-06-13T02:58:27.098Z,969.23
2017-06-13T02:59:27.096Z,969.34
2017-06-13T03:00:27.124Z,969.25
2017-06-13T03:01:27.093Z,969.24
2017-06-13T03:02:27.092Z,969.25
2017-06-13T03:03:27.089Z,969.33
2017-06-13T03:04:27.089Z,969.35
2017-06-13T03:05:27.087Z,969.42
2017-06-13T03:06:27.086Z,969.4
2017-06-13T03:07:27.084Z,969.41
2017-06-13T03:08:27.083Z,969.39
2017-06-13T03:09:27.082Z,969.38
2017-06-13T03:10:27.079Z,969.37
2017-06-13T03:11:27.077Z,969.38
2017-06-13T03:12:27.075Z,969.37
2017-06-13T03:13:27.075Z,969.33
2017-06-13T03:14:27.074Z,969.34
2017-06-13T03:15:27.073Z,969.29
2017-06-13T03:16:27.070Z,969.34
2017-06-13T03:17:27.067Z,969.38
2017-06-13T03:18:27.067Z,969.35
2017-06-13T03:19:27.065Z,969.36
2017-06-13T03:20:27.063Z,969.32
2017-06-13T03:21:27.062Z,969.33
2017-06-13T03:22:27.060Z,969.32
2017-06-13T03:23:27.057Z,969.39
2017-06-13T03:24:27.056Z,969.4
2017-06-13T03:25:27.055Z,969.42
2017-06-13T03:26:27.055Z,969.47
2017-06-13T03:27:27.051Z,969.48
2017-06-13T03:28:27.049Z,969.46
2017-06-13T03:29:27.047Z,969.5
2017-06-13T03:30:27.046Z,969.53
2017-06-13T03:31:27.046Z,969.45
2017-06-13T03:32:27.044Z,969.44
2017-06-13T03:33:27.041Z,969.46
2017-06-13T03:34:27.037Z,969.46
2017-06-13T03:35:27.037Z,969.5
2017-06-13T03:36:27.036Z,969.53
2017-06-13T03:37:27.035Z,969.51
2017-06-13T03:38:27.032Z,969.49
2017-06-13T03:39:27.029Z,969.53
2017-06-13T03:40:27.029Z,969.52
2017-06-13T03:41:27.026Z,969.54
2017-06-13T03:42:27.025Z,969.55
2017-06-13T03:43:27.025Z,969.56
2017-06-13T03:44:27.023Z,969.54
2017-06-13T03:45:27.019Z,969.58
2017-06-13T03:46:27.018Z,969.57
2017-06-13T03:47:27.017Z,969.55
2017-06-13T03:48:27.015Z,969.59
2017-06-13T03:49:27.013Z,969.57
2017-06-13T03:50:27.011Z,969.55
2017-06-13T03:51:27.011Z,969.54
2017-06-13T03:52:27.008Z,969.47
2017-06-13T03:53:27.009Z,969.43
2017-06-13T03:54:27.005Z,969.44
2017-06-13T03:55:27.003Z,969.41
2017-06-13T03:56:26.999Z,969.44
2017-06-13T03:57:26.999Z,969.4
2017-06-13T03:58:26.998Z,969.42
2017-06-13T03:59:26.995Z,969.43
2017-06-13T04:00:26.993Z,969.4
2017-06-13T04:01:26.992Z,969.44
2017-06-13T04:02:26.992Z,969.5
2017-06-13T04:03:26.991Z,969.56
2017-06-13T04:04:26.988Z,969.55
2017-06-13T04:05:26.987Z,969.59
2017-06-13T04:06:26.986Z,969.58
2017-06-13T04:07:26.982Z,969.62
2017-06-13T04:08:26.982Z,969.64
2017-06-13T04:09:26.980Z,969.66
2017-06-13T04:10:26.978Z,969.7
2017-06-13T04:11:26.975Z,969.65
2017-06-13T04:12:26.976Z,969.69
2017-06-13T04:13:26.974Z,969.67
2017-06-13T04:14:26.972Z,969.6
2017-06-13T04:15:26.970Z,969.61
2017-06-13T04:16:26.968Z,969.61
2017-06-13T04:17:26.967Z,969.65
2017-06-13T04:18:26.965Z,969.67
2017-06-13T04:19:26.964Z,969.64
2017-06-13T04:20:26.963Z,969.6
2017-06-13T04:21:26.962Z,969.63
2017-06-13T04:22:26.958Z,969.64
2017-06-13T04:23:26.958Z,969.59
2017-06-13T04:24:26.955Z,969.58
2017-06-13T04:25:26.954Z,969.56
2017-06-13T04:26:26.954Z,969.58
2017-06-13T04:27:26.953Z,969.53
2017-06-13T04:28:26.951Z,969.55
2017-06-13T04:29:26.948Z,969.55
2017-06-13T04:30:26.947Z,969.51
2017-06-13T04:31:26.945Z,969.49
2017-06-13T04:32:26.946Z,969.51
2017-06-13T04:33:26.942Z,969.54
2017-06-13T04:34:26.941Z,969.52
2017-06-13T04:35:26.938Z,969.48
2017-06-13T04:36:26.937Z,969.48
2017-06-13T04:37:26.938Z,969.46
2017-06-13T04:38:26.933Z,969.45
2017-06-13T04:39:26.932Z,969.45
2017-06-13T04:40:26.932Z,969.43
2017-06-13T04:41:26.931Z,969.4
2017-06-13T04:42:26.927Z,969.41
2017-06-13T04:43:26.928Z,969.4
2017-06-13T04:44:26.925Z,969.45
2017-06-13T04:45:26.924Z,969.4
2017-06-13T04:46:26.924Z,969.4
2017-06-13T04:47:26.922Z,969.36
2017-06-13T04:48:26.920Z,969.35
2017-06-13T04:49:26.917Z,969.33
2017-06-13T04:50:26.918Z,969.35
2017-06-13T04:51:26.915Z,969.36
2017-06-13T04:52:26.915Z,969.41
2017-06-13T04:53:26.914Z,969.4
2017-06-13T04:54:26.911Z,969.45
2017-06-13T04:55:26.910Z,969.48
2017-06-13T04:56:26.909Z,969.49
2017-06-13T04:57:26.907Z,969.53
2017-06-13T04:58:26.906Z,969.49
2017-06-13T04:59:26.905Z,969.44
2017-06-13T05:00:26.903Z,969.48
2017-06-13T05:01:26.902Z,969.52
2017-06-13T05:02:26.900Z,969.54
2017-06-13T05:03:26.899Z,969.57
2017-06-13T05:04:26.897Z,969.56
2017-06-13T05:05:26.896Z,969.58
2017-06-13T05:06:26.895Z,969.61
2017-06-13T05:07:26.891Z,969.58
2017-06-13T05:08:26.892Z,969.61
2017-06-13T05:09:26.890Z,969.57
2017-06-13T05:10:26.889Z,969.61
2017-06-13T05:11:26.886Z,969.57
2017-06-13T05:12:26.886Z,969.54
2017-06-13T05:13:26.883Z,969.54
2017-06-13T05:14:26.883Z,969.51
2017-06-13T05:15:26.882Z,969.47
2017-06-13T05:16:26.880Z,969.46
2017-06-13T05:17:26.877Z,969.48
2017-06-13T05:18:26.875Z,969.49
2017-06-13T05:19:26.875Z,969.48
2017-06-13T05:20:26.873Z,969.45
2017-06-13T05:21:26.872Z,969.47
2017-06-13T05:22:26.873Z,969.41
2017-06-13T05:23:26.872Z,969.41
2017-06-13T05:24:26.867Z,969.4
2017-06-13T05:25:26.866Z,969.44
2017-06-13T05:26:26.865Z,969.46
2017-06-13T05:27:26.863Z,969.44
2017-06-13T05:28:26.860Z,969.48
2017-06-13T05:29:26.859Z,969.44
2017-06-13T05:30:26.860Z,969.44
2017-06-13T05:31:26.858Z,969.44
2017-06-13T05:32:26.857Z,969.46
2017-06-13T05:33:26.856Z,969.49
2017-06-13T05:34:26.854Z,969.44
2017-06-13T05:35:26.851Z,969.45
2017-06-13T05:36:26.852Z,969.46
2017-06-13T05:37:26.850Z,969.48
2017-06-13T05:38:26.848Z,969.46
2017-06-13T05:39:26.846Z,969.48
2017-06-13T05:40:26.845Z,969.54
2017-06-13T05:41:26.846Z,969.55
2017-06-13T05:42:26.843Z,969.55
2017-06-13T05:43:26.842Z,969.53
2017-06-13T05:44:26.843Z,969.56
2017-06-13T05:45:26.840Z,969.58
2017-06-13T05:46:26.839Z,969.57
2017-06-13T05:47:26.836Z,969.56
2017-06-13T05:48:26.837Z,969.54
2017-06-13T05:49:26.835Z,969.54
2017-06-13T05:50:26.834Z,969.54
2017-06-13T05:51:26.832Z,969.56
2017-06-13T05:52:26.833Z,969.53
2017-06-13T05:53:26.831Z,969.52
2017-06-13T05:54:26.829Z,969.53
2017-06-13T05:55:26.827Z,969.56
2017-06-13T05:56:26.828Z,969.57
2017-06-13T05:57:26.825Z,969.58
2017-06-13T05:58:26.825Z,969.55
2017-06-13T05:59:26.821Z,969.53
2017-06-13T06:00:26.821Z,969.52
2017-06-13T06:01:26.821Z,969.53
2017-06-13T06:02:26.819Z,969.51
2017-06-13T06:03:26.819Z,969.47
2017-06-13T06:04:26.815Z,969.46
2017-06-13T06:05:26.822Z,969.47
2017-06-13T06:06:26.817Z,969.45
2017-06-13T06:07:26.814Z,969.45
2017-06-13T06:08:26.813Z,969.55
2017-06-13T06:09:26.810Z,969.55
2017-06-13T06:10:26.811Z,969.57
2017-06-13T06:11:26.811Z,969.57
2017-06-13T06:12:26.810Z,969.64
2017-06-13T06:13:26.808Z,969.61
2017-06-13T06:14:26.808Z,969.58
2017-06-13T06:15:26.807Z,969.55
2017-06-13T06:16:26.808Z,969.52
2017-06-13T06:17:26.809Z,969.48
2017-06-13T06:18:26.811Z,969.39
2017-06-13T06:19:26.810Z,969.42
2017-06-13T06:20:26.811Z,969.47
2017-06-13T06:21:26.812Z,969.57
2017-06-13T06:22:26.813Z,969.55
2017-06-13T06:23:26.813Z,969.59
2017-06-13T06:24:26.813Z,969.54
2017-06-13T06:25:26.815Z,969.56
2017-06-13T06:26:26.816Z,969.52
2017-06-13T06:27:26.818Z,969.54
2017-06-13T06:28:26.819Z,969.57
2017-06-13T06:29:26.819Z,969.58
2017-06-13T06:30:26.820Z,969.56
2017-06-13T06:31:26.821Z,969.57
2017-06-13T06:32:26.823Z,969.56
2017-06-13T06:33:26.822Z,969.56
2017-06-13T06:34:26.824Z,969.6
2017-06-13T06:35:26.825Z,969.61
2017-06-13T06:36:26.825Z,969.6
2017-06-13T06:37:26.824Z,969.58
2017-06-13T06:38:26.825Z,969.52
2017-06-13T06:39:26.829Z,969.51
2017-06-13T06:40:26.826Z,969.53
2017-06-13T06:41:26.827Z,969.53
2017-06-13T06:42:26.827Z,969.51
2017-06-13T06:43:26.828Z,969.52
2017-06-13T06:44:26.827Z,969.53
2017-06-13T06:45:26.827Z,969.54
2017-06-13T06:46:26.828Z,969.5
2017-06-13T06:47:26.829Z,969.55
2017-06-13T06:48:26.827Z,969.55
2017-06-13T06:49:26.828Z,969.57
2017-06-13T06:50:26.828Z,969.6
2017-06-13T06:51:26.831Z,969.59
2017-06-13T06:52:26.830Z,969.62
2017-06-13T06:53:26.829Z,969.6
2017-06-13T06:54:26.830Z,969.58
2017-06-13T06:55:26.829Z,969.59
2017-06-13T06:56:26.831Z,969.63
2017-06-13T06:57:26.830Z,969.65
2017-06-13T06:58:26.833Z,969.68
2017-06-13T06:59:26.831Z,969.64
2017-06-13T07:00:26.832Z,969.65
2017-06-13T07:01:26.833Z,969.66
2017-06-13T07:02:26.832Z,969.69
2017-06-13T07:03:26.834Z,969.68
2017-06-13T07:04:26.835Z,969.71
2017-06-13T07:05:26.835Z,969.69
2017-06-13T07:06:26.836Z,969.7
2017-06-13T07:07:26.835Z,969.7
2017-06-13T07:08:26.837Z,969.67
2017-06-13T07:09:26.837Z,969.66
2017-06-13T07:10:26.838Z,969.65
2017-06-13T07:11:26.837Z,969.64
2017-06-13T07:12:26.838Z,969.66
2017-06-13T07:13:26.839Z,969.62
2017-06-13T07:14:26.840Z,969.62
2017-06-13T07:15:26.840Z,969.61
2017-06-13T07:16:26.841Z,969.59
2017-06-13T07:17:26.840Z,969.62
2017-06-13T07:18:26.842Z,969.6
2017-06-13T07:19:26.843Z,969.6
2017-06-13T07:20:26.843Z,969.61
2017-06-13T07:21:26.845Z,969.6
2017-06-13T07:22:26.843Z,969.55
2017-06-13T07:23:26.847Z,969.57
2017-06-13T07:24:26.844Z,969.49
2017-06-13T07:25:26.846Z,969.5
2017-06-13T07:26:26.846Z,969.43
2017-06-13T07:27:26.848Z,969.44
2017-06-13T07:28:26.846Z,969.43
2017-06-13T07:29:26.847Z,969.43
2017-06-13T07:30:26.850Z,969.41
2017-06-13T07:31:26.850Z,969.4
2017-06-13T07:32:26.850Z,969.37
2017-06-13T07:33:26.852Z,969.37
2017-06-13T07:34:26.852Z,969.33
2017-06-13T07:35:26.851Z,969.39
2017-06-13T07:36:26.853Z,969.43
2017-06-13T07:37:26.858Z,969.4
2017-06-13T07:38:26.853Z,969.4
2017-06-13T07:39:26.855Z,969.41
2017-06-13T07:40:26.855Z,969.43
2017-06-13T07:41:26.856Z,969.42
2017-06-13T07:42:26.857Z,969.45
2017-06-13T07:43:26.857Z,969.5
2017-06-13T07:44:26.858Z,969.57
2017-06-13T07:45:26.860Z,969.53
2017-06-13T07:46:26.859Z,969.57
2017-06-13T07:47:26.859Z,969.55
2017-06-13T07:48:26.862Z,969.58
2017-06-13T07:49:26.863Z,969.57
2017-06-13T07:50:26.862Z,969.57
2017-06-13T07:51:26.862Z,969.56
2017-06-13T07:52:26.864Z,969.57
2017-06-13T07:53:26.864Z,969.56
2017-06-13T07:54:26.866Z,969.61
2017-06-13T07:55:26.868Z,969.61
2017-06-13T07:56:26.868Z,969.59
2017-06-13T07:57:26.868Z,969.58
2017-06-13T07:58:26.869Z,969.59
2017-06-13T07:59:26.871Z,969.56
2017-06-13T08:00:26.871Z,969.63
2017-06-13T08:01:26.872Z,969.66
2017-06-13T08:02:26.872Z,969.67
2017-06-13T08:03:26.874Z,969.66
2017-06-13T08:04:26.873Z,969.66
2017-06-13T08:05:26.874Z,969.67
2017-06-13T08:06:26.876Z,969.63
2017-06-13T08:07:26.875Z,969.62
2017-06-13T08:08:26.875Z,969.6
2017-06-13T08:09:26.876Z,969.52
2017-06-13T08:10:26.879Z,969.53
2017-06-13T08:11:26.879Z,969.51
2017-06-13T08:12:26.880Z,969.54
2017-06-13T08:13:26.880Z,969.51
2017-06-13T08:14:26.880Z,969.48
2017-06-13T08:15:26.879Z,969.5
2017-06-13T08:16:26.881Z,969.51
2017-06-13T08:17:26.882Z,969.54
2017-06-13T08:18:26.882Z,969.5
2017-06-13T08:19:26.884Z,969.52
2017-06-13T08:20:26.884Z,969.44
2017-06-13T08:21:26.885Z,969.47
2017-06-13T08:22:26.887Z,969.5
2017-06-13T08:23:26.887Z,969.47
2017-06-13T08:24:26.887Z,969.47
2017-06-13T08:25:26.886Z,969.48
2017-06-13T08:26:26.887Z,969.49
2017-06-13T08:27:26.889Z,969.47
2017-06-13T08:28:26.887Z,969.47
2017-06-13T08:29:26.890Z,969.47
2017-06-13T08:30:26.889Z,969.48
2017-06-13T08:31:26.890Z,969.49
2017-06-13T08:32:26.890Z,969.45
2017-06-13T08:33:26.892Z,969.43
2017-06-13T08:34:26.891Z,969.48
2017-06-13T08:35:26.891Z,969.49
2017-06-13T08:36:26.892Z,969.51
2017-06-13T08:37:26.893Z,969.52
2017-06-13T08:38:26.893Z,969.53
2017-06-13T08:39:26.894Z,969.53
2017-06-13T08:40:26.893Z,969.52
2017-06-13T08:41:26.893Z,969.49
2017-06-13T08:42:26.892Z,969.51
2017-06-13T08:43:26.893Z,969.47
2017-06-13T08:44:26.896Z,969.48
2017-06-13T08:45:26.896Z,969.49
2017-06-13T08:46:26.896Z,969.45
2017-06-13T08:47:26.895Z,969.47
2017-06-13T08:48:26.895Z,969.46
2017-06-13T08:49:26.896Z,969.46
2017-06-13T08:50:26.896Z,969.41
2017-06-13T08:51:26.897Z,969.39
2017-06-13T08:52:26.896Z,969.39
2017-06-13T08:53:26.898Z,969.37
2017-06-13T08:54:26.898Z,969.37
2017-06-13T08:55:26.900Z,969.36
2017-06-13T08:56:26.898Z,969.34
2017-06-13T08:57:26.898Z,969.38
2017-06-13T08:58:26.898Z,969.35
2017-06-13T08:59:26.898Z,969.34
2017-06-13T09:00:26.898Z,969.35
2017-06-13T09:01:26.898Z,969.33
2017-06-13T09:02:26.897Z,969.37
2017-06-13T09:03:26.896Z,969.35
2017-06-13T09:04:26.897Z,969.33
2017-06-13T09:05:26.898Z,969.34
2017-06-13T09:06:26.898Z,969.37
2017-06-13T09:07:26.897Z,969.35
2017-06-13T09:08:26.897Z,969.34
2017-06-13T09:09:26.896Z,969.32
2017-06-13T09:10:26.894Z,969.32
2017-06-13T09:11:26.896Z,969.34
2017-06-13T09:12:26.895Z,969.31
2017-06-13T09:13:26.897Z,969.34
2017-06-13T09:14:26.895Z,969.29
2017-06-13T09:15:26.896Z,969.34
2017-06-13T09:16:26.896Z,969.3
2017-06-13T09:17:26.895Z,969.3
2017-06-13T09:18:26.894Z,969.29
2017-06-13T09:19:26.893Z,969.3
2017-06-13T09:20:26.894Z,969.28
2017-06-13T09:21:26.893Z,969.29
2017-06-13T09:22:26.892Z,969.33
2017-06-13T09:23:26.894Z,969.32
2017-06-13T09:24:26.893Z,969.3
2017-06-13T09:25:26.891Z,969.28
2017-06-13T09:26:26.891Z,969.29
2017-06-13T09:27:26.891Z,969.27
2017-06-13T09:28:26.890Z,969.22
2017-06-13T09:29:26.891Z,969.22
2017-06-13T09:30:26.890Z,969.21
2017-06-13T09:31:26.891Z,969.2
2017-06-13T09:32:26.888Z,969.19
2017-06-13T09:33:26.888Z,969.19
2017-06-13T09:34:26.888Z,969.18
2017-06-13T09:35:26.888Z,969.14
2017-06-13T09:36:26.888Z,969.14
2017-06-13T09:37:26.887Z,969.1
2017-06-13T09:38:26.885Z,969.13
2017-06-13T09:39:26.884Z,969.12
2017-06-13T09:40:26.885Z,969.09
2017-06-13T09:41:26.885Z,969.12
2017-06-13T09:42:26.884Z,969.09
2017-06-13T09:43:26.882Z,969.06
2017-06-13T09:44:26.883Z,969.11
2017-06-13T09:45:26.884Z,969.09
2017-06-13T09:46:26.882Z,969.06
2017-06-13T09:47:26.882Z,969.09
2017-06-13T09:48:26.879Z,969.09
2017-06-13T09:49:26.878Z,969.07
2017-06-13T09:50:26.879Z,969.09
2017-06-13T09:51:26.877Z,969.05
2017-06-13T09:52:26.878Z,969.07
2017-06-13T09:53:26.879Z,969.06
2017-06-13T09:54:26.877Z,969.05
2017-06-13T09:55:26.876Z,969.06
2017-06-13T09:56:26.876Z,969.04
2017-06-13T09:57:26.875Z,969.03
2017-06-13T09:58:26.873Z,969.06
2017-06-13T09:59:26.874Z,969.04
2017-06-13T10:00:26.873Z,969.04
2017-06-13T10:01:26.872Z,968.99
2017-06-13T10:02:26.872Z,969
2017-06-13T10:03:26.872Z,969.01
2017-06-13T10:04:26.870Z,968.96
2017-06-13T10:05:26.868Z,969.02
2017-06-13T10:06:26.869Z,968.99
2017-06-13T10:07:26.868Z,969.01
2017-06-13T10:08:26.867Z,969
2017-06-13T10:09:26.867Z,968.97
2017-06-13T10:10:26.866Z,968.99
2017-06-13T10:11:26.865Z,968.91
2017-06-13T10:12:26.864Z,968.93
2017-06-13T10:13:26.864Z,968.91
2017-06-13T10:14:26.863Z,968.95
2017-06-13T10:15:26.864Z,968.91
2017-06-13T10:16:26.861Z,968.92
2017-06-13T10:17:26.860Z,968.9
2017-06-13T10:18:26.860Z,968.91
2017-06-13T10:19:26.862Z,968.89
2017-06-13T10:20:26.860Z,968.9
2017-06-13T10:21:26.859Z,968.87
2017-06-13T10:22:26.859Z,968.91
2017-06-13T10:23:26.857Z,968.87
2017-06-13T10:24:26.855Z,968.92
2017-06-13T10:25:26.856Z,968.91
2017-06-13T10:26:26.854Z,968.91
2017-06-13T10:27:26.854Z,968.91
2017-06-13T10:28:26.853Z,968.95
2017-06-13T10:29:26.874Z,968.97
2017-06-13T10:30:26.853Z,968.95
2017-06-13T10:31:26.853Z,968.99
2017-06-13T10:32:26.851Z,968.92
2017-06-13T10:33:26.850Z,968.92
2017-06-13T10:34:26.848Z,968.97
2017-06-13T10:35:26.850Z,968.96
2017-06-13T10:36:26.847Z,968.99
2017-06-13T10:37:26.846Z,968.98
2017-06-13T10:38:26.846Z,968.98
2017-06-13T10:39:26.845Z,968.94
2017-06-13T10:40:26.846Z,968.96
2017-06-13T10:41:26.845Z,968.95
2017-06-13T10:42:26.844Z,968.91
2017-06-13T10:43:26.843Z,968.92
2017-06-13T10:44:26.842Z,968.94
2017-06-13T10:45:26.841Z,968.9
2017-06-13T10:46:26.840Z,968.91
2017-06-13T10:47:26.840Z,968.92
2017-06-13T10:48:26.839Z,968.89
2017-06-13T10:49:26.836Z,968.89
2017-06-13T10:50:26.837Z,968.87
2017-06-13T10:51:26.837Z,968.84
2017-06-13T10:52:26.837Z,968.85
2017-06-13T10:53:26.835Z,968.88
2017-06-13T10:54:26.834Z,968.88
2017-06-13T10:55:26.833Z,968.83
2017-06-13T10:56:26.834Z,968.86
2017-06-13T10:57:26.834Z,968.87
2017-06-13T10:58:26.831Z,968.87
2017-06-13T10:59:26.832Z,968.85
2017-06-13T11:00:26.832Z,968.83
2017-06-13T11:01:26.829Z,968.84
2017-06-13T11:02:26.829Z,968.82
2017-06-13T11:03:26.830Z,968.81
2017-06-13T11:04:26.828Z,968.82
2017-06-13T11:05:26.827Z,968.79
2017-06-13T11:06:26.827Z,968.77
2017-06-13T11:07:26.825Z,968.78
2017-06-13T11:08:26.825Z,968.76
2017-06-13T11:09:26.826Z,968.8
2017-06-13T11:10:26.823Z,968.76
2017-06-13T11:11:26.823Z,968.77
2017-06-13T11:12:26.822Z,968.8
2017-06-13T11:13:26.820Z,968.81
2017-06-13T11:14:26.819Z,968.82
2017-06-13T11:15:26.819Z,968.8
2017-06-13T11:16:26.820Z,968.78
2017-06-13T11:17:26.818Z,968.75
2017-06-13T11:18:26.815Z,968.73
2017-06-13T11:19:26.815Z,968.74
2017-06-13T11:20:26.816Z,968.68
2017-06-13T11:21:26.818Z,968.72
2017-06-13T11:22:26.814Z,968.69
2017-06-13T11:23:26.812Z,968.7
2017-06-13T11:24:26.812Z,968.68
2017-06-13T11:25:26.814Z,968.72
2017-06-13T11:26:26.812Z,968.65
2017-06-13T11:27:26.810Z,968.65
2017-06-13T11:28:26.812Z,968.64
2017-06-13T11:29:26.808Z,968.64
2017-06-13T11:30:26.808Z,968.63
2017-06-13T11:31:26.808Z,968.58
2017-06-13T11:32:26.806Z,968.6
2017-06-13T11:33:26.805Z,968.58
2017-06-13T11:34:26.803Z,968.57
2017-06-13T11:35:26.806Z,968.54
2017-06-13T11:36:26.804Z,968.49
2017-06-13T11:37:26.806Z,968.51
2017-06-13T11:38:26.800Z,968.53
2017-06-13T11:39:26.801Z,968.48
2017-06-13T11:40:26.800Z,968.45
2017-06-13T11:41:26.800Z,968.44
2017-06-13T11:42:26.798Z,968.43
2017-06-13T11:43:26.798Z,968.41
2017-06-13T11:44:26.797Z,968.4
2017-06-13T11:45:26.796Z,968.41
2017-06-13T11:46:26.796Z,968.39
2017-06-13T11:47:26.794Z,968.33
2017-06-13T11:48:26.797Z,968.42
2017-06-13T11:49:26.793Z,968.37
2017-06-13T11:50:26.792Z,968.44
2017-06-13T11:51:26.790Z,968.37
2017-06-13T11:52:26.791Z,968.36
2017-06-13T11:53:26.790Z,968.32
2017-06-13T11:54:26.789Z,968.3
2017-06-13T11:55:26.788Z,968.35
2017-06-13T11:56:26.787Z,968.32
2017-06-13T11:57:26.786Z,968.29
2017-06-13T11:58:26.785Z,968.26
2017-06-13T11:59:26.786Z,968.25
2017-06-13T12:00:26.785Z,968.27
2017-06-13T12:01:26.784Z,968.26
2017-06-13T12:02:26.781Z,968.28
2017-06-13T12:03:26.780Z,968.25
2017-06-13T12:04:26.782Z,968.25
2017-06-13T12:05:26.779Z,968.23
2017-06-13T12:06:26.779Z,968.21
2017-06-13T12:07:26.779Z,968.25
2017-06-13T12:08:26.776Z,968.18
2017-06-13T12:09:26.777Z,968.18
2017-06-13T12:10:26.774Z,968.18
2017-06-13T12:11:26.776Z,968.1
2017-06-13T12:12:26.772Z,968.09
2017-06-13T12:13:26.772Z,968.11
2017-06-13T12:14:26.773Z,968.07
2017-06-13T12:15:26.773Z,968.06
2017-06-13T12:16:26.771Z,968.07
2017-06-13T12:17:26.770Z,968.06
2017-06-13T12:18:26.769Z,968.04
2017-06-13T12:19:26.769Z,968.04
2017-06-13T12:20:26.768Z,968.03
2017-06-13T12:21:26.768Z,968.02
2017-06-13T12:22:26.766Z,967.97
2017-06-13T12:23:26.765Z,967.99
2017-06-13T12:24:26.764Z,967.99
2017-06-13T12:25:26.763Z,968
2017-06-13T12:26:26.763Z,968.01
2017-06-13T12:27:26.764Z,967.98
2017-06-13T12:28:26.761Z,968.01
2017-06-13T12:29:26.760Z,967.95
2017-06-13T12:30:26.759Z,967.98